createdAt,value
2018-11-05T00:09:55.238Z,88.53
2018-11-05T00:20:00.324Z,37.20
2018-11-05T00:30:05.483Z,5.10
2018-11-05T00:40:16.349Z,33.23
2018-11-05T00:50:21.260Z,33.83
2018-11-05T01:00:26.091Z,32.63
2018-11-05T01:10:30.953Z,33.23
2018-11-05T01:20:35.840Z,35.77
2018-11-05T01:30:40.701Z,31.57
2018-11-05T01:40:45.540Z,29.00
2018-11-05T01:50:50.359Z,31.30
2018-11-05T02:00:55.275Z,25.93
2018-11-05T02:11:00.117Z,40.93
2018-11-05T02:21:04.971Z,24.00
2018-11-05T02:31:09.845Z,38.77
2018-11-05T02:41:14.701Z,32.27
2018-11-05T02:51:19.610Z,41.17
2018-11-05T03:01:24.447Z,44.87
2018-11-05T03:11:29.261Z,43.00
2018-11-05T03:21:34.130Z,45.93
2018-11-05T03:31:38.879Z,38.77
2018-11-05T03:41:43.681Z,42.00
2018-11-05T03:51:48.443Z,54.43
2018-11-05T04:01:53.282Z,38.90
2018-11-05T04:11:58.076Z,57.83
2018-11-05T04:22:02.779Z,46.67
2018-11-05T04:32:07.507Z,61.73
2018-11-05T04:42:12.267Z,59.00
2018-11-05T04:52:17.070Z,201.90
2018-11-05T05:02:21.881Z,66.20
2018-11-05T05:12:26.672Z,66.80
2018-11-05T05:22:31.897Z,95.10
2018-11-05T05:32:36.653Z,101.40
2018-11-05T05:42:41.841Z,136.03
2018-11-05T05:52:48.009Z,95.27
2018-11-05T06:02:52.822Z,100.07
2018-11-05T06:12:57.667Z,73.47
2018-11-05T06:23:02.445Z,70.30
2018-11-05T06:33:07.188Z,64.20
2018-11-05T06:43:12.151Z,65.23
2018-11-05T06:53:17.174Z,59.97
2018-11-05T07:03:22.083Z,62.03
2018-11-05T07:13:27.748Z,64.80
2018-11-05T07:23:32.954Z,42.93
2018-11-05T07:33:37.776Z,51.50
2018-11-05T07:43:42.497Z,65.33
2018-11-05T07:53:47.318Z,46.83
2018-11-05T08:03:52.529Z,47.70
2018-11-05T08:13:57.523Z,42.07
2018-11-05T08:24:02.454Z,34.30
2018-11-05T08:34:07.522Z,34.07
2018-11-05T08:43:59.103Z,24.20
2018-11-05T08:46:29.460Z,33.87
2018-11-05T08:48:59.300Z,33.30
2018-11-05T08:51:29.366Z,34.03
2018-11-05T08:53:58.955Z,31.10
2018-11-05T08:56:28.958Z,36.97
2018-11-05T08:58:58.740Z,32.23
2018-11-05T09:01:32.437Z,30.13
2018-11-05T09:04:02.715Z,30.27
2018-11-05T09:06:32.589Z,31.40
2018-11-05T09:09:02.381Z,31.33
2018-11-05T09:11:32.633Z,27.33
2018-11-05T09:14:02.214Z,29.57
2018-11-05T09:16:32.104Z,30.23
2018-11-05T09:19:02.049Z,35.33
2018-11-05T09:21:31.914Z,30.83
2018-11-05T09:24:01.874Z,29.63
2018-11-05T09:26:31.697Z,26.70
2018-11-05T09:29:01.589Z,33.17
2018-11-05T09:31:31.346Z,30.83
2018-11-05T09:34:01.193Z,39.93
2018-11-05T09:36:31.119Z,30.70
2018-11-05T09:39:00.833Z,37.03
2018-11-05T09:41:30.956Z,28.67
2018-11-05T09:44:00.857Z,28.47
2018-11-05T09:46:30.861Z,26.13
2018-11-05T09:49:00.639Z,29.30
2018-11-05T09:51:30.357Z,25.73
2018-11-05T09:54:00.310Z,18.73
2018-11-05T09:56:30.188Z,5.20
2018-11-05T09:58:59.970Z,2.53
2018-11-05T10:01:29.729Z,3.57
2018-11-05T10:03:59.603Z,3.10
2018-11-05T10:06:29.406Z,2.00
2018-11-05T10:08:59.139Z,1.57
2018-11-05T10:11:28.946Z,1.80
2018-11-05T10:13:58.689Z,1.90
2018-11-05T10:16:28.425Z,1.23
2018-11-05T10:18:58.199Z,3.20
2018-11-05T10:21:27.952Z,1.20
2018-11-05T10:23:57.725Z,3.07
2018-11-05T10:26:27.549Z,2.60
2018-11-05T10:28:57.281Z,1.90
2018-11-05T10:31:28.305Z,17.47
2018-11-05T10:33:58.018Z,18.23
2018-11-05T10:36:27.749Z,21.90
2018-11-05T10:38:57.469Z,21.87
2018-11-05T10:41:27.226Z,13.93
2018-11-05T10:43:56.989Z,17.07
2018-11-05T10:46:26.729Z,17.63
2018-11-05T10:48:56.569Z,32.17
2018-11-05T10:51:26.397Z,22.73
2018-11-05T10:53:56.092Z,18.82
2018-11-05T10:56:25.812Z,17.52
2018-11-05T10:58:55.662Z,19.40
2018-11-05T11:01:30.650Z,18.92
2018-11-05T11:04:05.581Z,20.80
2018-11-05T11:06:35.478Z,21.75
2018-11-05T11:09:06.949Z,22.80
2018-11-05T11:11:36.897Z,22.67
2018-11-05T11:14:06.707Z,24.60
2018-11-05T11:16:36.485Z,21.93
2018-11-05T11:19:06.588Z,24.25
2018-11-05T11:21:36.336Z,21.20
2018-11-05T11:24:06.374Z,23.07
2018-11-05T11:26:36.308Z,23.30
2018-11-05T11:29:06.917Z,21.15
2018-11-05T11:31:36.616Z,26.33
2018-11-05T11:34:06.528Z,22.93
2018-11-05T11:36:36.390Z,24.35
2018-11-05T11:39:09.073Z,27.93
2018-11-05T11:41:39.859Z,22.05
2018-11-05T11:44:09.742Z,22.60
2018-11-05T11:46:39.688Z,24.95
2018-11-05T11:49:10.421Z,23.77
2018-11-05T11:51:40.183Z,22.27
2018-11-05T11:54:10.072Z,21.07
2018-11-05T11:56:39.990Z,18.85
2018-11-05T11:59:09.864Z,17.48
2018-11-05T12:01:44.709Z,19.80
2018-11-05T12:04:14.546Z,22.42
2018-11-05T12:06:44.564Z,21.73
2018-11-05T12:09:14.433Z,23.13
2018-11-05T12:11:44.173Z,21.43
2018-11-05T12:14:14.133Z,23.93
2018-11-05T12:16:44.774Z,22.73
2018-11-05T12:19:14.696Z,22.93
2018-11-05T12:21:44.458Z,22.13
2018-11-05T12:24:14.262Z,23.67
2018-11-05T12:26:44.175Z,24.63
2018-11-05T12:29:13.963Z,22.87
2018-11-05T12:31:43.841Z,21.33
2018-11-05T12:34:13.930Z,24.20
2018-11-05T12:36:43.744Z,25.93
2018-11-05T12:39:13.650Z,21.33
2018-11-05T12:41:43.436Z,21.37
2018-11-05T12:44:13.318Z,22.43
2018-11-05T12:46:43.281Z,26.37
2018-11-05T12:49:13.216Z,24.63
2018-11-05T12:51:42.990Z,28.60
2018-11-05T12:54:12.769Z,37.50
2018-11-05T12:56:42.549Z,27.63
2018-11-05T12:59:12.269Z,24.03
2018-11-05T13:01:42.167Z,22.93
2018-11-05T13:04:12.041Z,24.57
2018-11-05T13:06:41.759Z,27.03
2018-11-05T13:09:11.513Z,32.73
2018-11-05T13:11:41.304Z,25.40
2018-11-05T13:14:11.127Z,27.97
2018-11-05T13:16:42.150Z,29.30
2018-11-05T13:19:11.892Z,27.07
2018-11-05T13:21:42.118Z,25.53
2018-11-05T13:24:11.990Z,27.33
2018-11-05T13:26:41.742Z,26.10
2018-11-05T13:29:11.620Z,26.60
2018-11-05T13:31:41.472Z,27.93
2018-11-05T13:34:11.258Z,28.67
2018-11-05T13:36:41.096Z,30.97
2018-11-05T13:39:11.142Z,38.90
2018-11-05T13:41:40.887Z,30.80
2018-11-05T13:44:10.562Z,33.57
2018-11-05T13:46:40.746Z,31.70
2018-11-05T13:49:10.664Z,31.63
2018-11-05T13:51:39.936Z,27.90
2018-11-05T13:54:09.795Z,33.53
2018-11-05T13:56:39.558Z,30.57
2018-11-05T13:59:09.373Z,32.73
2018-11-05T14:01:39.573Z,28.63
2018-11-05T14:04:09.325Z,29.57
2018-11-05T14:06:39.065Z,28.80
2018-11-05T14:09:09.729Z,31.80
2018-11-05T14:11:39.577Z,30.70
2018-11-05T14:14:09.424Z,36.53
2018-11-05T14:16:39.173Z,39.47
2018-11-05T14:19:08.911Z,33.67
2018-11-05T14:21:38.797Z,39.47
2018-11-05T14:24:08.693Z,37.80
2018-11-05T14:26:39.593Z,32.77
2018-11-05T14:29:09.768Z,35.93
2018-11-05T14:31:39.421Z,30.87
2018-11-05T14:34:09.231Z,37.30
2018-11-05T14:36:39.551Z,41.33
2018-11-05T14:39:11.944Z,34.40
2018-11-05T14:41:42.298Z,33.13
2018-11-05T14:44:13.316Z,36.53
2018-11-05T14:46:43.243Z,35.13
2018-11-05T14:49:13.437Z,30.47
2018-11-05T14:51:43.369Z,33.07
2018-11-05T14:54:13.656Z,33.73
2018-11-05T14:56:43.561Z,28.17
2018-11-05T14:59:13.389Z,30.13
2018-11-05T15:01:44.898Z,31.53
2018-11-05T15:04:15.611Z,33.57
2018-11-05T15:06:45.649Z,33.70
2018-11-05T15:09:15.497Z,36.83
2018-11-05T15:11:45.325Z,33.57
2018-11-05T15:14:15.258Z,35.73
2018-11-05T15:16:45.167Z,36.10
2018-11-05T15:19:15.479Z,43.67
2018-11-05T15:21:44.953Z,38.80
2018-11-05T15:24:14.789Z,45.80
2018-11-05T15:26:44.611Z,42.93
2018-11-05T15:29:14.498Z,43.33
2018-11-05T15:31:44.391Z,50.23
2018-11-05T15:34:14.303Z,47.10
2018-11-05T15:36:44.266Z,44.93
2018-11-05T15:39:14.149Z,41.03
2018-11-05T15:41:44.056Z,44.87
2018-11-05T15:44:14.030Z,40.33
2018-11-05T15:46:44.521Z,42.50
2018-11-05T15:49:14.381Z,44.00
2018-11-05T15:51:44.690Z,45.20
2018-11-05T15:54:14.514Z,40.53
2018-11-05T15:56:44.593Z,44.07
2018-11-05T15:59:14.526Z,41.97
2018-11-05T16:01:44.684Z,45.30
2018-11-05T16:04:14.709Z,41.57
2018-11-05T16:06:44.528Z,45.17
2018-11-05T16:09:14.406Z,49.60
2018-11-05T16:11:44.316Z,52.33
2018-11-05T16:14:14.177Z,46.97
2018-11-05T16:16:44.173Z,44.00
2018-11-05T16:19:14.313Z,44.00
2018-11-05T16:21:44.265Z,45.27
2018-11-05T16:24:14.287Z,39.63
2018-11-05T16:26:44.372Z,41.07
2018-11-05T16:29:14.452Z,41.17
2018-11-05T16:31:44.329Z,40.70
2018-11-05T16:34:14.269Z,47.00
2018-11-05T16:36:44.376Z,51.80
2018-11-05T16:39:14.612Z,50.50
2018-11-05T16:41:44.645Z,48.87
2018-11-05T16:44:14.536Z,52.90
2018-11-05T16:46:44.895Z,56.57
2018-11-05T16:49:15.165Z,59.63
2018-11-05T16:51:45.290Z,53.47
2018-11-05T16:54:15.443Z,49.63
2018-11-05T16:56:45.392Z,49.87
2018-11-05T16:59:15.505Z,58.90
2018-11-05T17:01:45.738Z,53.20
2018-11-05T17:04:15.682Z,45.63
2018-11-05T17:06:46.024Z,49.50
2018-11-05T17:09:15.946Z,47.60
2018-11-05T17:11:45.980Z,47.80
2018-11-05T17:14:15.864Z,44.47
2018-11-05T17:16:45.855Z,45.83
2018-11-05T17:19:15.980Z,53.47
2018-11-05T17:21:46.199Z,49.83
2018-11-05T17:24:16.052Z,48.27
2018-11-05T17:26:45.858Z,53.63
2018-11-05T17:29:15.838Z,45.37
2018-11-05T17:31:45.680Z,44.23
2018-11-05T17:34:15.824Z,45.53
2018-11-05T17:36:45.674Z,41.30
2018-11-05T17:39:15.558Z,48.87
2018-11-05T17:41:45.589Z,45.00
2018-11-05T17:44:15.535Z,56.63
2018-11-05T17:46:45.573Z,51.87
2018-11-05T17:49:15.475Z,47.27
2018-11-05T17:51:45.713Z,49.53
2018-11-05T17:54:15.738Z,47.97
2018-11-05T17:56:45.505Z,47.10
2018-11-05T17:59:15.440Z,46.17
2018-11-05T18:01:45.218Z,45.43
2018-11-05T18:04:15.065Z,50.37
2018-11-05T18:06:45.963Z,45.47
2018-11-05T18:09:15.787Z,44.40
2018-11-05T18:11:45.589Z,47.50
2018-11-05T18:14:15.544Z,47.97
2018-11-05T18:16:45.351Z,47.93
2018-11-05T18:19:15.237Z,49.80
2018-11-05T18:21:45.096Z,52.67
2018-11-05T18:24:15.068Z,49.83
2018-11-05T18:26:45.109Z,53.27
2018-11-05T18:29:15.072Z,55.00
2018-11-05T18:31:45.319Z,49.53
2018-11-05T18:34:15.101Z,42.33
2018-11-05T18:36:44.840Z,11.13
2018-11-05T18:39:14.714Z,4.77
2018-11-05T18:41:44.860Z,3.27
2018-11-05T18:44:15.014Z,1.23
2018-11-05T18:46:45.226Z,3.60
2018-11-05T18:49:15.066Z,2.50
2018-11-05T18:51:45.160Z,1.87
2018-11-05T18:54:15.343Z,5.73
2018-11-05T18:56:45.654Z,0.63
2018-11-05T18:59:15.900Z,1.17
2018-11-05T19:01:45.848Z,0.70
2018-11-05T19:04:16.100Z,1.20
2018-11-05T19:06:46.303Z,2.03
2018-11-05T19:09:16.427Z,2.13
2018-11-05T19:11:46.548Z,3.80
2018-11-05T19:14:16.923Z,1.10
2018-11-05T19:16:46.838Z,5.33
2018-11-05T19:19:16.843Z,3.30
2018-11-05T19:21:46.888Z,1.60
2018-11-05T19:24:17.034Z,1.30
2018-11-05T19:26:47.074Z,0.97
2018-11-05T19:29:17.180Z,0.87
2018-11-05T19:31:47.546Z,1.03
2018-11-05T19:34:17.739Z,0.60
2018-11-05T19:36:47.964Z,0.60
2018-11-05T19:39:18.420Z,1.67
2018-11-05T19:41:49.633Z,1.67
2018-11-05T19:44:19.736Z,2.30
2018-11-05T19:46:50.050Z,2.27
2018-11-05T19:49:20.346Z,2.73
2018-11-05T19:51:50.420Z,0.53
2018-11-05T19:54:20.689Z,2.13
2018-11-05T19:56:51.210Z,1.37
2018-11-05T19:59:21.170Z,0.30
2018-11-05T20:01:51.141Z,2.97
2018-11-05T20:04:21.034Z,2.03
2018-11-05T20:06:51.076Z,1.73
2018-11-05T20:09:21.043Z,1.00
2018-11-05T20:11:51.152Z,1.17
2018-11-05T20:14:21.242Z,0.87
2018-11-05T20:16:51.296Z,0.70
2018-11-05T20:19:21.639Z,0.40
2018-11-05T20:21:52.253Z,0.80
2018-11-05T20:24:22.314Z,0.60
2018-11-05T20:26:52.523Z,0.80
2018-11-05T20:29:22.786Z,0.80
2018-11-05T20:31:53.409Z,1.53
2018-11-05T20:34:24.533Z,0.87
2018-11-05T20:36:54.904Z,0.43
2018-11-05T20:39:25.149Z,0.77
2018-11-05T20:41:55.479Z,0.63
2018-11-05T20:44:25.598Z,0.70
2018-11-05T20:46:55.739Z,0.90
2018-11-05T20:49:25.966Z,0.27
2018-11-05T20:51:56.453Z,0.97
2018-11-05T20:54:26.669Z,1.23
2018-11-05T20:56:56.940Z,2.17
2018-11-05T20:59:27.049Z,0.80
2018-11-05T21:01:57.232Z,2.17
2018-11-05T21:04:27.369Z,0.83
2018-11-05T21:06:57.450Z,0.50
2018-11-05T21:09:27.905Z,0.97
2018-11-05T21:11:58.683Z,1.90
2018-11-05T21:14:29.196Z,1.57
2018-11-05T21:16:59.533Z,1.17
2018-11-05T21:19:30.272Z,1.27
2018-11-05T21:22:00.788Z,2.57
2018-11-05T21:24:31.152Z,0.60
2018-11-05T21:27:01.623Z,2.20
2018-11-05T21:29:31.943Z,0.97
2018-11-05T21:32:02.320Z,3.30
2018-11-05T21:34:32.636Z,1.30
2018-11-05T21:37:02.831Z,1.17
2018-11-05T21:39:33.298Z,1.20
2018-11-05T21:42:03.454Z,0.53
2018-11-05T21:44:33.867Z,1.77
2018-11-05T21:47:04.569Z,0.47
2018-11-05T21:49:34.845Z,0.47
2018-11-05T21:52:04.887Z,0.93
2018-11-05T21:54:34.833Z,0.63
2018-11-05T21:57:05.026Z,0.63
2018-11-05T21:59:34.948Z,1.23
2018-11-05T22:02:04.936Z,0.83
2018-11-05T22:04:35.128Z,1.30
2018-11-05T22:07:05.427Z,1.83
2018-11-05T22:09:35.421Z,3.80
2018-11-05T22:12:06.408Z,0.60
2018-11-05T22:14:36.700Z,1.63
2018-11-05T22:17:07.215Z,1.03
2018-11-05T22:19:37.259Z,0.93
2018-11-05T22:22:07.309Z,1.43
2018-11-05T22:24:37.208Z,0.60
2018-11-05T22:27:06.956Z,0.77
2018-11-05T22:29:36.862Z,1.13
2018-11-05T22:32:06.849Z,0.40
2018-11-05T22:34:36.785Z,0.50
2018-11-05T22:37:06.712Z,0.30
2018-11-05T22:39:36.917Z,1.10
2018-11-05T22:42:06.889Z,0.73
2018-11-05T22:44:36.756Z,1.47
2018-11-05T22:47:06.586Z,0.80
2018-11-05T22:49:36.433Z,0.37
2018-11-05T22:52:07.355Z,0.30
2018-11-05T22:54:37.154Z,0.57
2018-11-05T22:57:07.009Z,0.63
2018-11-05T22:59:36.918Z,0.43
2018-11-05T23:02:06.797Z,0.97
2018-11-05T23:04:36.543Z,0.50
2018-11-05T23:07:06.347Z,2.57
2018-11-05T23:09:36.117Z,0.33
2018-11-05T23:12:05.934Z,0.63
2018-11-05T23:14:35.690Z,0.57
2018-11-05T23:17:05.716Z,0.50
2018-11-05T23:19:35.446Z,0.30
2018-11-05T23:22:05.188Z,0.50
2018-11-05T23:24:34.969Z,0.80
2018-11-05T23:27:04.697Z,1.03
2018-11-05T23:29:34.505Z,0.30
2018-11-05T23:32:04.193Z,0.83
2018-11-05T23:34:33.965Z,0.77
2018-11-05T23:37:03.826Z,0.20
2018-11-05T23:39:33.526Z,0.77
2018-11-05T23:42:03.284Z,0.30
2018-11-05T23:44:32.970Z,1.20
2018-11-05T23:47:02.758Z,1.80
2018-11-05T23:49:32.506Z,1.50
2018-11-05T23:52:02.240Z,1.47
2018-11-05T23:54:31.966Z,4.30
2018-11-05T23:57:01.764Z,0.43
2018-11-05T23:59:31.555Z,1.57
